sensor_id;sensor_type;location;lat;lon;timestamp;P1;durP1;ratioP1;P2;durP2;ratioP2
8331;SDS011;4203;48.144;14.118;2023-05-29T00:00:50;6.38;;;5.47;;
8331;SDS011;4203;48.144;14.118;2023-05-29T00:03:18;9.65;;;5.60;;
8331;SDS011;4203;48.144;14.118;2023-05-29T00:05:45;8.38;;;5.70;;
8331;SDS011;4203;48.144;14.118;2023-05-29T00:08:14;7.80;;;5.95;;
8331;SDS011;4203;48.144;14.118;2023-05-29T00:10:41;9.68;;;5.43;;
8331;SDS011;4203;48.144;14.118;2023-05-29T00:13:08;7.15;;;5.30;;
8331;SDS011;4203;48.144;14.118;2023-05-29T00:15:36;6.78;;;5.75;;
8331;SDS011;4203;48.144;14.118;2023-05-29T00:18:03;7.20;;;5.82;;
8331;SDS011;4203;48.144;14.118;2023-05-29T00:20:30;6.60;;;5.90;;
8331;SDS011;4203;48.144;14.118;2023-05-29T00:22:59;7.60;;;5.78;;
8331;SDS011;4203;48.144;14.118;2023-05-29T00:25:28;8.77;;;6.30;;
8331;SDS011;4203;48.144;14.118;2023-05-29T00:27:56;6.93;;;5.72;;
8331;SDS011;4203;48.144;14.118;2023-05-29T00:30:23;6.22;;;5.68;;
8331;SDS011;4203;48.144;14.118;2023-05-29T00:32:50;6.53;;;5.82;;
8331;SDS011;4203;48.144;14.118;2023-05-29T00:35:19;6.85;;;6.15;;
8331;SDS011;4203;48.144;14.118;2023-05-29T00:37:46;6.53;;;5.70;;
8331;SDS011;4203;48.144;14.118;2023-05-29T00:40:13;8.15;;;5.75;;
8331;SDS011;4203;48.144;14.118;2023-05-29T00:42:42;8.15;;;6.32;;
8331;SDS011;4203;48.144;14.118;2023-05-29T00:45:10;7.90;;;5.93;;
8331;SDS011;4203;48.144;14.118;2023-05-29T00:47:38;7.28;;;5.63;;
8331;SDS011;4203;48.144;14.118;2023-05-29T00:50:06;7.78;;;5.88;;
8331;SDS011;4203;48.144;14.118;2023-05-29T00:52:38;6.78;;;5.78;;
8331;SDS011;4203;48.144;14.118;2023-05-29T00:55:07;9.35;;;6.05;;
8331;SDS011;4203;48.144;14.118;2023-05-29T00:57:35;6.68;;;5.60;;
8331;SDS011;4203;48.144;14.118;2023-05-29T01:00:06;6.63;;;5.93;;
8331;SDS011;4203;48.144;14.118;2023-05-29T01:02:39;8.57;;;6.22;;
8331;SDS011;4203;48.144;14.118;2023-05-29T01:05:09;6.50;;;5.90;;
8331;SDS011;4203;48.144;14.118;2023-05-29T01:07:37;7.47;;;5.32;;
8331;SDS011;4203;48.144;14.118;2023-05-29T01:10:04;7.95;;;6.45;;
8331;SDS011;4203;48.144;14.118;2023-05-29T01:12:35;8.77;;;6.80;;
8331;SDS011;4203;48.144;14.118;2023-05-29T01:15:24;7.82;;;6.10;;
8331;SDS011;4203;48.144;14.118;2023-05-29T01:18:01;7.63;;;6.82;;
8331;SDS011;4203;48.144;14.118;2023-05-29T01:20:40;6.60;;;6.00;;
8331;SDS011;4203;48.144;14.118;2023-05-29T01:23:20;9.68;;;6.13;;
8331;SDS011;4203;48.144;14.118;2023-05-29T01:26:11;10.43;;;6.35;;
8331;SDS011;4203;48.144;14.118;2023-05-29T01:28:51;6.38;;;5.72;;
8331;SDS011;4203;48.144;14.118;2023-05-29T01:31:20;8.57;;;6.15;;
8331;SDS011;4203;48.144;14.118;2023-05-29T01:33:53;8.18;;;6.07;;
8331;SDS011;4203;48.144;14.118;2023-05-29T01:36:21;8.18;;;6.25;;
8331;SDS011;4203;48.144;14.118;2023-05-29T01:38:48;8.38;;;6.28;;
8331;SDS011;4203;48.144;14.118;2023-05-29T01:41:18;8.23;;;6.18;;
8331;SDS011;4203;48.144;14.118;2023-05-29T01:43:46;7.45;;;6.45;;
8331;SDS011;4203;48.144;14.118;2023-05-29T01:46:16;7.50;;;5.80;;
8331;SDS011;4203;48.144;14.118;2023-05-29T01:48:44;8.98;;;6.65;;
8331;SDS011;4203;48.144;14.118;2023-05-29T01:51:12;7.15;;;5.82;;
8331;SDS011;4203;48.144;14.118;2023-05-29T01:53:40;6.65;;;5.93;;
8331;SDS011;4203;48.144;14.118;2023-05-29T01:56:08;8.48;;;6.25;;
8331;SDS011;4203;48.144;14.118;2023-05-29T01:58:37;6.47;;;5.88;;
8331;SDS011;4203;48.144;14.118;2023-05-29T02:01:05;7.43;;;6.30;;
8331;SDS011;4203;48.144;14.118;2023-05-29T02:03:34;6.90;;;6.20;;
8331;SDS011;4203;48.144;14.118;2023-05-29T02:06:01;7.45;;;6.13;;
8331;SDS011;4203;48.144;14.118;2023-05-29T02:08:28;7.05;;;6.35;;
8331;SDS011;4203;48.144;14.118;2023-05-29T02:10:56;6.43;;;5.85;;
8331;SDS011;4203;48.144;14.118;2023-05-29T02:13:23;7.30;;;6.20;;
8331;SDS011;4203;48.144;14.118;2023-05-29T02:15:50;6.53;;;5.85;;
8331;SDS011;4203;48.144;14.118;2023-05-29T02:18:17;9.98;;;6.93;;
8331;SDS011;4203;48.144;14.118;2023-05-29T02:20:46;6.50;;;5.82;;
8331;SDS011;4203;48.144;14.118;2023-05-29T02:23:13;7.35;;;6.40;;
8331;SDS011;4203;48.144;14.118;2023-05-29T02:25:41;6.47;;;5.88;;
8331;SDS011;4203;48.144;14.118;2023-05-29T02:28:08;8.82;;;6.50;;
8331;SDS011;4203;48.144;14.118;2023-05-29T02:30:36;7.35;;;6.45;;
8331;SDS011;4203;48.144;14.118;2023-05-29T02:33:03;8.45;;;6.18;;
8331;SDS011;4203;48.144;14.118;2023-05-29T02:35:31;6.65;;;6.05;;
8331;SDS011;4203;48.144;14.118;2023-05-29T02:38:00;11.07;;;6.55;;
8331;SDS011;4203;48.144;14.118;2023-05-29T02:40:27;10.70;;;6.00;;
8331;SDS011;4203;48.144;14.118;2023-05-29T02:42:54;7.75;;;6.65;;
8331;SDS011;4203;48.144;14.118;2023-05-29T02:45:21;7.15;;;6.40;;
8331;SDS011;4203;48.144;14.118;2023-05-29T02:47:49;8.30;;;6.20;;
8331;SDS011;4203;48.144;14.118;2023-05-29T02:50:16;11.00;;;6.88;;
8331;SDS011;4203;48.144;14.118;2023-05-29T02:52:43;10.40;;;6.90;;
8331;SDS011;4203;48.144;14.118;2023-05-29T02:55:12;8.65;;;6.28;;
8331;SDS011;4203;48.144;14.118;2023-05-29T02:57:39;8.13;;;6.05;;
8331;SDS011;4203;48.144;14.118;2023-05-29T03:00:07;8.68;;;6.75;;
8331;SDS011;4203;48.144;14.118;2023-05-29T03:02:35;7.63;;;6.93;;
8331;SDS011;4203;48.144;14.118;2023-05-29T03:05:03;7.78;;;6.78;;
8331;SDS011;4203;48.144;14.118;2023-05-29T03:07:31;9.48;;;6.40;;
8331;SDS011;4203;48.144;14.118;2023-05-29T03:09:58;8.52;;;6.70;;
8331;SDS011;4203;48.144;14.118;2023-05-29T03:12:27;7.45;;;6.32;;
8331;SDS011;4203;48.144;14.118;2023-05-29T03:14:54;8.73;;;6.65;;
8331;SDS011;4203;48.144;14.118;2023-05-29T03:17:22;11.53;;;7.43;;
8331;SDS011;4203;48.144;14.118;2023-05-29T03:19:49;7.57;;;6.85;;
8331;SDS011;4203;48.144;14.118;2023-05-29T03:22:17;8.75;;;6.95;;
8331;SDS011;4203;48.144;14.118;2023-05-29T03:24:44;9.67;;;7.30;;
8331;SDS011;4203;48.144;14.118;2023-05-29T03:27:11;7.50;;;6.17;;
8331;SDS011;4203;48.144;14.118;2023-05-29T03:29:41;6.65;;;5.95;;
8331;SDS011;4203;48.144;14.118;2023-05-29T03:32:08;7.28;;;6.57;;
8331;SDS011;4203;48.144;14.118;2023-05-29T03:34:35;9.90;;;6.63;;
8331;SDS011;4203;48.144;14.118;2023-05-29T03:37:02;8.30;;;6.57;;
8331;SDS011;4203;48.144;14.118;2023-05-29T03:39:30;8.13;;;6.90;;
8331;SDS011;4203;48.144;14.118;2023-05-29T03:41:57;7.90;;;7.13;;
8331;SDS011;4203;48.144;14.118;2023-05-29T03:44:24;8.50;;;6.40;;
8331;SDS011;4203;48.144;14.118;2023-05-29T03:46:52;7.70;;;6.67;;
8331;SDS011;4203;48.144;14.118;2023-05-29T03:49:19;8.50;;;6.35;;
8331;SDS011;4203;48.144;14.118;2023-05-29T03:51:47;8.43;;;6.80;;
8331;SDS011;4203;48.144;14.118;2023-05-29T03:54:14;9.95;;;7.10;;
8331;SDS011;4203;48.144;14.118;2023-05-29T03:56:41;8.35;;;6.88;;
8331;SDS011;4203;48.144;14.118;2023-05-29T03:59:08;9.73;;;6.68;;
8331;SDS011;4203;48.144;14.118;2023-05-29T04:01:35;7.60;;;6.47;;
8331;SDS011;4203;48.144;14.118;2023-05-29T04:04:04;7.55;;;6.75;;
8331;SDS011;4203;48.144;14.118;2023-05-29T04:06:31;7.75;;;6.88;;
8331;SDS011;4203;48.144;14.118;2023-05-29T04:08:58;9.45;;;6.25;;
8331;SDS011;4203;48.144;14.118;2023-05-29T04:11:25;8.07;;;7.00;;
8331;SDS011;4203;48.144;14.118;2023-05-29T04:13:53;9.02;;;7.05;;
8331;SDS011;4203;48.144;14.118;2023-05-29T04:16:20;8.27;;;7.28;;
8331;SDS011;4203;48.144;14.118;2023-05-29T04:18:47;7.85;;;6.70;;
8331;SDS011;4203;48.144;14.118;2023-05-29T04:21:15;7.95;;;7.05;;
8331;SDS011;4203;48.144;14.118;2023-05-29T04:23:43;9.25;;;7.43;;
8331;SDS011;4203;48.144;14.118;2023-05-29T04:26:10;9.40;;;7.22;;
8331;SDS011;4203;48.144;14.118;2023-05-29T04:28:38;8.68;;;7.47;;
8331;SDS011;4203;48.144;14.118;2023-05-29T04:31:05;9.13;;;6.88;;
8331;SDS011;4203;48.144;14.118;2023-05-29T04:33:32;10.00;;;7.72;;
8331;SDS011;4203;48.144;14.118;2023-05-29T04:36:02;8.27;;;7.47;;
8331;SDS011;4203;48.144;14.118;2023-05-29T04:38:31;9.15;;;6.97;;
8331;SDS011;4203;48.144;14.118;2023-05-29T04:40:59;8.93;;;7.07;;
8331;SDS011;4203;48.144;14.118;2023-05-29T04:43:26;9.95;;;7.20;;
8331;SDS011;4203;48.144;14.118;2023-05-29T04:45:53;7.90;;;7.10;;
8331;SDS011;4203;48.144;14.118;2023-05-29T04:48:20;10.02;;;7.30;;
8331;SDS011;4203;48.144;14.118;2023-05-29T04:50:47;6.45;;;5.82;;
8331;SDS011;4203;48.144;14.118;2023-05-29T04:53:17;7.72;;;6.93;;
8331;SDS011;4203;48.144;14.118;2023-05-29T04:55:46;8.02;;;7.22;;
8331;SDS011;4203;48.144;14.118;2023-05-29T04:58:13;13.05;;;7.97;;
8331;SDS011;4203;48.144;14.118;2023-05-29T05:00:40;15.10;;;7.03;;
8331;SDS011;4203;48.144;14.118;2023-05-29T05:03:08;17.30;;;8.00;;
8331;SDS011;4203;48.144;14.118;2023-05-29T05:05:36;17.98;;;8.32;;
8331;SDS011;4203;48.144;14.118;2023-05-29T05:08:03;13.02;;;8.23;;
8331;SDS011;4203;48.144;14.118;2023-05-29T05:10:30;10.57;;;7.10;;
8331;SDS011;4203;48.144;14.118;2023-05-29T05:12:59;9.00;;;7.30;;
8331;SDS011;4203;48.144;14.118;2023-05-29T05:15:27;10.00;;;7.90;;
8331;SDS011;4203;48.144;14.118;2023-05-29T05:17:55;9.02;;;8.10;;
8331;SDS011;4203;48.144;14.118;2023-05-29T05:20:22;9.50;;;8.23;;
8331;SDS011;4203;48.144;14.118;2023-05-29T05:22:49;16.30;;;8.02;;
8331;SDS011;4203;48.144;14.118;2023-05-29T05:25:17;9.90;;;7.55;;
8331;SDS011;4203;48.144;14.118;2023-05-29T05:27:44;9.52;;;8.52;;
8331;SDS011;4203;48.144;14.118;2023-05-29T05:30:13;11.40;;;8.13;;
8331;SDS011;4203;48.144;14.118;2023-05-29T05:32:41;9.77;;;7.78;;
8331;SDS011;4203;48.144;14.118;2023-05-29T05:35:08;9.68;;;7.97;;
8331;SDS011;4203;48.144;14.118;2023-05-29T05:37:36;9.57;;;8.50;;
8331;SDS011;4203;48.144;14.118;2023-05-29T05:40:04;10.32;;;8.05;;
8331;SDS011;4203;48.144;14.118;2023-05-29T05:42:33;9.82;;;7.70;;
8331;SDS011;4203;48.144;14.118;2023-05-29T05:45:01;10.38;;;8.27;;
8331;SDS011;4203;48.144;14.118;2023-05-29T05:47:30;9.63;;;8.38;;
8331;SDS011;4203;48.144;14.118;2023-05-29T05:49:58;11.98;;;7.57;;
8331;SDS011;4203;48.144;14.118;2023-05-29T05:52:25;8.85;;;7.57;;
8331;SDS011;4203;48.144;14.118;2023-05-29T05:54:56;12.77;;;7.50;;
8331;SDS011;4203;48.144;14.118;2023-05-29T05:57:23;8.23;;;6.88;;
8331;SDS011;4203;48.144;14.118;2023-05-29T05:59:50;9.98;;;7.82;;
8331;SDS011;4203;48.144;14.118;2023-05-29T06:02:18;14.65;;;8.07;;
8331;SDS011;4203;48.144;14.118;2023-05-29T06:04:46;8.65;;;7.57;;
8331;SDS011;4203;48.144;14.118;2023-05-29T06:07:15;9.88;;;8.63;;
8331;SDS011;4203;48.144;14.118;2023-05-29T06:09:43;11.93;;;8.68;;
8331;SDS011;4203;48.144;14.118;2023-05-29T06:12:10;10.65;;;7.45;;
8331;SDS011;4203;48.144;14.118;2023-05-29T06:14:37;12.05;;;8.32;;
8331;SDS011;4203;48.144;14.118;2023-05-29T06:17:05;8.57;;;7.43;;
8331;SDS011;4203;48.144;14.118;2023-05-29T06:19:32;8.45;;;7.55;;
8331;SDS011;4203;48.144;14.118;2023-05-29T06:22:01;12.55;;;8.80;;
8331;SDS011;4203;48.144;14.118;2023-05-29T06:24:28;9.85;;;8.10;;
8331;SDS011;4203;48.144;14.118;2023-05-29T06:26:55;10.60;;;8.43;;
8331;SDS011;4203;48.144;14.118;2023-05-29T06:29:22;10.00;;;7.65;;
8331;SDS011;4203;48.144;14.118;2023-05-29T06:31:49;8.35;;;7.43;;
8331;SDS011;4203;48.144;14.118;2023-05-29T06:34:16;8.48;;;7.53;;
8331;SDS011;4203;48.144;14.118;2023-05-29T06:36:44;8.73;;;6.93;;
8331;SDS011;4203;48.144;14.118;2023-05-29T06:39:13;9.30;;;7.30;;
8331;SDS011;4203;48.144;14.118;2023-05-29T06:41:40;8.27;;;7.40;;
8331;SDS011;4203;48.144;14.118;2023-05-29T06:44:07;7.20;;;6.38;;
8331;SDS011;4203;48.144;14.118;2023-05-29T06:46:35;7.25;;;6.50;;
8331;SDS011;4203;48.144;14.118;2023-05-29T06:49:02;8.90;;;7.00;;
8331;SDS011;4203;48.144;14.118;2023-05-29T06:51:29;7.38;;;6.30;;
8331;SDS011;4203;48.144;14.118;2023-05-29T06:53:57;7.78;;;6.82;;
8331;SDS011;4203;48.144;14.118;2023-05-29T06:56:26;9.27;;;6.80;;
8331;SDS011;4203;48.144;14.118;2023-05-29T06:58:55;7.90;;;6.95;;
8331;SDS011;4203;48.144;14.118;2023-05-29T07:01:22;9.35;;;6.53;;
8331;SDS011;4203;48.144;14.118;2023-05-29T07:03:51;6.15;;;5.45;;
8331;SDS011;4203;48.144;14.118;2023-05-29T07:06:18;6.80;;;5.60;;
8331;SDS011;4203;48.144;14.118;2023-05-29T07:08:46;6.80;;;5.93;;
8331;SDS011;4203;48.144;14.118;2023-05-29T07:11:13;8.77;;;6.00;;
8331;SDS011;4203;48.144;14.118;2023-05-29T07:13:41;8.77;;;6.72;;
8331;SDS011;4203;48.144;14.118;2023-05-29T07:16:08;9.10;;;6.03;;
8331;SDS011;4203;48.144;14.118;2023-05-29T07:18:36;6.55;;;5.57;;
8331;SDS011;4203;48.144;14.118;2023-05-29T07:21:03;8.32;;;5.82;;
8331;SDS011;4203;48.144;14.118;2023-05-29T07:23:31;8.25;;;6.15;;
8331;SDS011;4203;48.144;14.118;2023-05-29T07:25:58;5.93;;;4.75;;
8331;SDS011;4203;48.144;14.118;2023-05-29T07:28:25;8.25;;;4.80;;
8331;SDS011;4203;48.144;14.118;2023-05-29T07:30:53;5.43;;;4.80;;
8331;SDS011;4203;48.144;14.118;2023-05-29T07:33:21;5.40;;;4.65;;
8331;SDS011;4203;48.144;14.118;2023-05-29T07:35:48;7.57;;;4.63;;
8331;SDS011;4203;48.144;14.118;2023-05-29T07:38:15;5.50;;;4.60;;
8331;SDS011;4203;48.144;14.118;2023-05-29T07:40:42;7.18;;;4.28;;
8331;SDS011;4203;48.144;14.118;2023-05-29T07:43:09;7.10;;;4.70;;
8331;SDS011;4203;48.144;14.118;2023-05-29T07:45:36;7.72;;;4.22;;
8331;SDS011;4203;48.144;14.118;2023-05-29T07:48:05;6.88;;;4.47;;
8331;SDS011;4203;48.144;14.118;2023-05-29T07:50:32;5.72;;;4.53;;
8331;SDS011;4203;48.144;14.118;2023-05-29T07:52:59;6.18;;;4.40;;
8331;SDS011;4203;48.144;14.118;2023-05-29T07:55:26;4.32;;;3.92;;
8331;SDS011;4203;48.144;14.118;2023-05-29T07:57:53;6.38;;;5.13;;
8331;SDS011;4203;48.144;14.118;2023-05-29T08:00:21;7.97;;;4.25;;
8331;SDS011;4203;48.144;14.118;2023-05-29T08:02:49;6.63;;;4.80;;
8331;SDS011;4203;48.144;14.118;2023-05-29T08:05:19;6.07;;;4.53;;
8331;SDS011;4203;48.144;14.118;2023-05-29T08:07:46;4.97;;;4.50;;
8331;SDS011;4203;48.144;14.118;2023-05-29T08:10:13;8.25;;;4.50;;
8331;SDS011;4203;48.144;14.118;2023-05-29T08:12:41;6.13;;;4.63;;
8331;SDS011;4203;48.144;14.118;2023-05-29T08:15:08;4.68;;;4.22;;
8331;SDS011;4203;48.144;14.118;2023-05-29T08:17:36;6.78;;;4.47;;
8331;SDS011;4203;48.144;14.118;2023-05-29T08:20:04;4.53;;;4.13;;
8331;SDS011;4203;48.144;14.118;2023-05-29T08:22:34;5.00;;;4.22;;
8331;SDS011;4203;48.144;14.118;2023-05-29T08:25:01;4.57;;;3.97;;
8331;SDS011;4203;48.144;14.118;2023-05-29T08:27:28;4.00;;;3.60;;
8331;SDS011;4203;48.144;14.118;2023-05-29T08:29:56;5.25;;;4.32;;
8331;SDS011;4203;48.144;14.118;2023-05-29T08:32:23;4.03;;;3.63;;
8331;SDS011;4203;48.144;14.118;2023-05-29T08:34:50;4.38;;;3.95;;
8331;SDS011;4203;48.144;14.118;2023-05-29T08:37:17;4.65;;;3.95;;
8331;SDS011;4203;48.144;14.118;2023-05-29T08:39:46;7.43;;;4.18;;
8331;SDS011;4203;48.144;14.118;2023-05-29T08:42:15;3.90;;;3.58;;
8331;SDS011;4203;48.144;14.118;2023-05-29T08:44:47;10.35;;;4.32;;
8331;SDS011;4203;48.144;14.118;2023-05-29T08:47:15;5.63;;;3.78;;
8331;SDS011;4203;48.144;14.118;2023-05-29T08:49:45;5.07;;;3.42;;
8331;SDS011;4203;48.144;14.118;2023-05-29T08:52:19;4.43;;;3.35;;
8331;SDS011;4203;48.144;14.118;2023-05-29T08:54:49;5.30;;;3.33;;
8331;SDS011;4203;48.144;14.118;2023-05-29T08:57:17;4.95;;;3.55;;
8331;SDS011;4203;48.144;14.118;2023-05-29T08:59:45;5.75;;;3.63;;
8331;SDS011;4203;48.144;14.118;2023-05-29T09:02:17;7.57;;;3.90;;
8331;SDS011;4203;48.144;14.118;2023-05-29T09:04:45;5.47;;;3.58;;
8331;SDS011;4203;48.144;14.118;2023-05-29T09:07:13;4.45;;;3.95;;
8331;SDS011;4203;48.144;14.118;2023-05-29T09:09:41;6.22;;;3.58;;
8331;SDS011;4203;48.144;14.118;2023-05-29T09:12:10;6.68;;;3.72;;
8331;SDS011;4203;48.144;14.118;2023-05-29T09:14:38;7.03;;;3.85;;
8331;SDS011;4203;48.144;14.118;2023-05-29T09:17:08;6.07;;;3.83;;
8331;SDS011;4203;48.144;14.118;2023-05-29T09:19:36;6.63;;;3.58;;
8331;SDS011;4203;48.144;14.118;2023-05-29T09:22:05;4.13;;;3.72;;
8331;SDS011;4203;48.144;14.118;2023-05-29T09:24:35;5.00;;;4.00;;
8331;SDS011;4203;48.144;14.118;2023-05-29T09:27:04;6.35;;;4.15;;
8331;SDS011;4203;48.144;14.118;2023-05-29T09:29:36;3.92;;;3.63;;
8331;SDS011;4203;48.144;14.118;2023-05-29T09:32:06;4.05;;;3.65;;
8331;SDS011;4203;48.144;14.118;2023-05-29T09:34:34;5.70;;;3.63;;
8331;SDS011;4203;48.144;14.118;2023-05-29T09:37:01;6.80;;;5.53;;
8331;SDS011;4203;48.144;14.118;2023-05-29T09:39:34;5.53;;;4.60;;
8331;SDS011;4203;48.144;14.118;2023-05-29T09:42:11;4.32;;;3.55;;
8331;SDS011;4203;48.144;14.118;2023-05-29T09:44:41;6.88;;;3.60;;
8331;SDS011;4203;48.144;14.118;2023-05-29T09:47:08;6.55;;;3.90;;
8331;SDS011;4203;48.144;14.118;2023-05-29T09:49:40;5.70;;;3.78;;
8331;SDS011;4203;48.144;14.118;2023-05-29T09:52:08;4.28;;;3.53;;
8331;SDS011;4203;48.144;14.118;2023-05-29T09:54:39;4.60;;;3.50;;
8331;SDS011;4203;48.144;14.118;2023-05-29T09:57:10;3.47;;;3.17;;
8331;SDS011;4203;48.144;14.118;2023-05-29T09:59:40;3.85;;;3.22;;
8331;SDS011;4203;48.144;14.118;2023-05-29T10:02:10;5.25;;;3.53;;
8331;SDS011;4203;48.144;14.118;2023-05-29T10:04:39;5.30;;;4.05;;
8331;SDS011;4203;48.144;14.118;2023-05-29T10:07:08;5.40;;;3.33;;
8331;SDS011;4203;48.144;14.118;2023-05-29T10:09:38;4.30;;;3.90;;
8331;SDS011;4203;48.144;14.118;2023-05-29T10:12:09;4.40;;;3.72;;
8331;SDS011;4203;48.144;14.118;2023-05-29T10:14:38;13.35;;;3.85;;
8331;SDS011;4203;48.144;14.118;2023-05-29T10:17:09;4.45;;;4.05;;
8331;SDS011;4203;48.144;14.118;2023-05-29T10:19:41;6.32;;;3.85;;
8331;SDS011;4203;48.144;14.118;2023-05-29T10:22:11;5.97;;;3.40;;
8331;SDS011;4203;48.144;14.118;2023-05-29T10:24:39;4.15;;;3.65;;
8331;SDS011;4203;48.144;14.118;2023-05-29T10:27:07;3.80;;;3.50;;
8331;SDS011;4203;48.144;14.118;2023-05-29T10:29:35;5.25;;;3.60;;
8331;SDS011;4203;48.144;14.118;2023-05-29T10:32:15;4.32;;;3.92;;
8331;SDS011;4203;48.144;14.118;2023-05-29T10:34:50;6.32;;;5.72;;
8331;SDS011;4203;48.144;14.118;2023-05-29T10:37:25;6.10;;;5.55;;
8331;SDS011;4203;48.144;14.118;2023-05-29T10:40:03;24.77;;;20.42;;
8331;SDS011;4203;48.144;14.118;2023-05-29T10:42:44;8.65;;;5.90;;
8331;SDS011;4203;48.144;14.118;2023-05-29T10:51:10;5.32;;;4.65;;
8331;SDS011;4203;48.144;14.118;2023-05-29T10:53:51;8.30;;;7.60;;
8331;SDS011;4203;48.144;14.118;2023-05-29T10:56:22;17.20;;;15.73;;
8331;SDS011;4203;48.144;14.118;2023-05-29T10:58:53;12.98;;;11.88;;
8331;SDS011;4203;48.144;14.118;2023-05-29T11:01:22;4.90;;;4.50;;
8331;SDS011;4203;48.144;14.118;2023-05-29T11:03:53;6.00;;;5.22;;
8331;SDS011;4203;48.144;14.118;2023-05-29T11:06:41;5.57;;;4.50;;
8331;SDS011;4203;48.144;14.118;2023-05-29T11:09:25;6.22;;;4.38;;
8331;SDS011;4203;48.144;14.118;2023-05-29T11:14:47;7.55;;;4.50;;
8331;SDS011;4203;48.144;14.118;2023-05-29T11:17:30;4.55;;;4.15;;
8331;SDS011;4203;48.144;14.118;2023-05-29T11:20:02;6.70;;;4.07;;
8331;SDS011;4203;48.144;14.118;2023-05-29T11:22:34;5.43;;;4.93;;
8331;SDS011;4203;48.144;14.118;2023-05-29T11:25:14;5.20;;;4.28;;
8331;SDS011;4203;48.144;14.118;2023-05-29T11:27:44;6.13;;;4.68;;
8331;SDS011;4203;48.144;14.118;2023-05-29T11:30:12;4.32;;;3.90;;
8331;SDS011;4203;48.144;14.118;2023-05-29T11:32:39;4.57;;;4.10;;
8331;SDS011;4203;48.144;14.118;2023-05-29T11:35:11;4.78;;;4.10;;
8331;SDS011;4203;48.144;14.118;2023-05-29T11:37:48;4.50;;;4.05;;
8331;SDS011;4203;48.144;14.118;2023-05-29T11:40:16;4.43;;;3.55;;
8331;SDS011;4203;48.144;14.118;2023-05-29T11:42:43;4.10;;;3.70;;
8331;SDS011;4203;48.144;14.118;2023-05-29T11:45:13;4.80;;;4.00;;
8331;SDS011;4203;48.144;14.118;2023-05-29T11:47:51;4.70;;;3.42;;
8331;SDS011;4203;48.144;14.118;2023-05-29T11:50:21;4.10;;;3.70;;
8331;SDS011;4203;48.144;14.118;2023-05-29T11:52:49;5.10;;;4.18;;
8331;SDS011;4203;48.144;14.118;2023-05-29T11:55:17;4.68;;;4.07;;
8331;SDS011;4203;48.144;14.118;2023-05-29T11:57:45;4.43;;;4.03;;
8331;SDS011;4203;48.144;14.118;2023-05-29T12:00:13;4.00;;;3.58;;
8331;SDS011;4203;48.144;14.118;2023-05-29T12:02:41;5.15;;;4.00;;
8331;SDS011;4203;48.144;14.118;2023-05-29T12:05:12;4.13;;;3.40;;
8331;SDS011;4203;48.144;14.118;2023-05-29T12:07:48;4.68;;;4.15;;
8331;SDS011;4203;48.144;14.118;2023-05-29T12:10:16;4.38;;;3.90;;
8331;SDS011;4203;48.144;14.118;2023-05-29T12:12:46;4.38;;;3.95;;
8331;SDS011;4203;48.144;14.118;2023-05-29T12:15:14;4.88;;;3.60;;
8331;SDS011;4203;48.144;14.118;2023-05-29T12:17:43;5.07;;;3.72;;
8331;SDS011;4203;48.144;14.118;2023-05-29T12:20:12;4.05;;;3.67;;
8331;SDS011;4203;48.144;14.118;2023-05-29T12:22:40;4.22;;;3.75;;
8331;SDS011;4203;48.144;14.118;2023-05-29T12:25:10;4.05;;;3.65;;
8331;SDS011;4203;48.144;14.118;2023-05-29T12:27:39;5.32;;;3.60;;
8331;SDS011;4203;48.144;14.118;2023-05-29T12:30:08;4.43;;;3.78;;
8331;SDS011;4203;48.144;14.118;2023-05-29T12:32:37;7.18;;;4.00;;
8331;SDS011;4203;48.144;14.118;2023-05-29T12:35:15;6.57;;;3.88;;
8331;SDS011;4203;48.144;14.118;2023-05-29T12:37:44;4.07;;;3.60;;
8331;SDS011;4203;48.144;14.118;2023-05-29T12:40:17;4.10;;;3.80;;
8331;SDS011;4203;48.144;14.118;2023-05-29T12:42:45;4.43;;;4.03;;
8331;SDS011;4203;48.144;14.118;2023-05-29T12:45:13;5.00;;;4.40;;
8331;SDS011;4203;48.144;14.118;2023-05-29T12:47:50;4.20;;;3.75;;
8331;SDS011;4203;48.144;14.118;2023-05-29T12:50:20;4.75;;;3.83;;
8331;SDS011;4203;48.144;14.118;2023-05-29T12:52:55;4.47;;;3.88;;
8331;SDS011;4203;48.144;14.118;2023-05-29T12:55:24;6.07;;;3.65;;
8331;SDS011;4203;48.144;14.118;2023-05-29T12:57:55;5.88;;;4.18;;
8331;SDS011;4203;48.144;14.118;2023-05-29T13:00:23;4.53;;;4.13;;
8331;SDS011;4203;48.144;14.118;2023-05-29T13:02:50;5.43;;;4.63;;
8331;SDS011;4203;48.144;14.118;2023-05-29T13:05:17;4.28;;;3.90;;
8331;SDS011;4203;48.144;14.118;2023-05-29T13:07:47;7.53;;;3.65;;
8331;SDS011;4203;48.144;14.118;2023-05-29T13:10:15;4.82;;;4.03;;
8331;SDS011;4203;48.144;14.118;2023-05-29T13:12:44;5.68;;;3.88;;
8331;SDS011;4203;48.144;14.118;2023-05-29T13:15:12;4.38;;;3.97;;
8331;SDS011;4203;48.144;14.118;2023-05-29T13:17:41;4.05;;;3.35;;
8331;SDS011;4203;48.144;14.118;2023-05-29T13:20:09;4.78;;;3.65;;
8331;SDS011;4203;48.144;14.118;2023-05-29T13:22:37;4.50;;;4.10;;
8331;SDS011;4203;48.144;14.118;2023-05-29T13:25:05;4.15;;;3.80;;
8331;SDS011;4203;48.144;14.118;2023-05-29T13:27:34;4.35;;;3.95;;
8331;SDS011;4203;48.144;14.118;2023-05-29T13:30:04;4.68;;;3.80;;
8331;SDS011;4203;48.144;14.118;2023-05-29T13:32:32;4.95;;;4.18;;
8331;SDS011;4203;48.144;14.118;2023-05-29T13:35:00;4.07;;;3.78;;
8331;SDS011;4203;48.144;14.118;2023-05-29T13:37:28;5.85;;;4.10;;
8331;SDS011;4203;48.144;14.118;2023-05-29T13:39:56;4.30;;;3.90;;
8331;SDS011;4203;48.144;14.118;2023-05-29T13:42:24;4.05;;;3.42;;
8331;SDS011;4203;48.144;14.118;2023-05-29T13:44:51;4.65;;;3.75;;
8331;SDS011;4203;48.144;14.118;2023-05-29T13:47:20;4.65;;;4.20;;
8331;SDS011;4203;48.144;14.118;2023-05-29T13:49:48;4.88;;;3.70;;
8331;SDS011;4203;48.144;14.118;2023-05-29T13:52:15;4.60;;;4.07;;
8331;SDS011;4203;48.144;14.118;2023-05-29T13:54:42;4.30;;;3.90;;
8331;SDS011;4203;48.144;14.118;2023-05-29T13:57:10;4.30;;;3.90;;
8331;SDS011;4203;48.144;14.118;2023-05-29T13:59:38;4.43;;;3.83;;
8331;SDS011;4203;48.144;14.118;2023-05-29T14:02:05;4.28;;;3.88;;
8331;SDS011;4203;48.144;14.118;2023-05-29T14:04:35;4.25;;;3.85;;
8331;SDS011;4203;48.144;14.118;2023-05-29T14:07:03;4.88;;;4.03;;
8331;SDS011;4203;48.144;14.118;2023-05-29T14:09:31;4.32;;;3.97;;
8331;SDS011;4203;48.144;14.118;2023-05-29T14:11:58;4.60;;;3.83;;
8331;SDS011;4203;48.144;14.118;2023-05-29T14:14:27;4.25;;;3.78;;
8331;SDS011;4203;48.144;14.118;2023-05-29T14:16:54;5.47;;;4.00;;
8331;SDS011;4203;48.144;14.118;2023-05-29T14:19:23;4.93;;;4.30;;
8331;SDS011;4203;48.144;14.118;2023-05-29T14:21:52;5.35;;;4.35;;
8331;SDS011;4203;48.144;14.118;2023-05-29T14:24:19;4.55;;;4.15;;
8331;SDS011;4203;48.144;14.118;2023-05-29T14:26:46;5.18;;;4.75;;
8331;SDS011;4203;48.144;14.118;2023-05-29T14:29:14;4.97;;;4.07;;
8331;SDS011;4203;48.144;14.118;2023-05-29T14:31:41;4.68;;;4.03;;
8331;SDS011;4203;48.144;14.118;2023-05-29T14:34:09;4.35;;;3.97;;
8331;SDS011;4203;48.144;14.118;2023-05-29T14:36:37;4.38;;;3.97;;
8331;SDS011;4203;48.144;14.118;2023-05-29T14:39:06;4.40;;;4.00;;
8331;SDS011;4203;48.144;14.118;2023-05-29T14:41:34;4.47;;;4.07;;
8331;SDS011;4203;48.144;14.118;2023-05-29T14:44:01;4.50;;;4.10;;
8331;SDS011;4203;48.144;14.118;2023-05-29T14:46:28;4.85;;;4.38;;
8331;SDS011;4203;48.144;14.118;2023-05-29T14:48:57;4.80;;;4.40;;
8331;SDS011;4203;48.144;14.118;2023-05-29T14:51:25;6.45;;;4.55;;
8331;SDS011;4203;48.144;14.118;2023-05-29T14:53:52;5.57;;;3.90;;
8331;SDS011;4203;48.144;14.118;2023-05-29T14:56:21;4.47;;;3.88;;
8331;SDS011;4203;48.144;14.118;2023-05-29T14:58:48;4.15;;;3.85;;
8331;SDS011;4203;48.144;14.118;2023-05-29T15:01:15;5.35;;;4.07;;
8331;SDS011;4203;48.144;14.118;2023-05-29T15:03:43;4.97;;;4.07;;
8331;SDS011;4203;48.144;14.118;2023-05-29T15:06:11;4.38;;;3.78;;
8331;SDS011;4203;48.144;14.118;2023-05-29T15:08:39;7.35;;;4.25;;
8331;SDS011;4203;48.144;14.118;2023-05-29T15:11:08;4.68;;;4.28;;
8331;SDS011;4203;48.144;14.118;2023-05-29T15:13:39;5.20;;;4.10;;
8331;SDS011;4203;48.144;14.118;2023-05-29T15:16:06;5.75;;;4.03;;
8331;SDS011;4203;48.144;14.118;2023-05-29T15:18:33;5.72;;;4.50;;